Time;durP1;ratioP1;P1;durP2;ratioP2;P2;SDS_P1;SDS_P2;PMS_P1;PMS_P2;Temp;Humidity;BMP_temperature;BMP_pressure;BME280_temperature;BME280_humidity;BME280_pressure;Samples;Min_cycle;Max_cycle;Signal;HPM_P1;HPM_P2
2023/07/09 00:02:15;;;;;;;6.12;2.55;;;;;;;19.45;60.25;100156.03;4308731;33;20112;-92
2023/07/09 00:04:41;;;;;;;4.80;3.28;;;;;;;19.71;60.27;100150.97;4321067;33;20495;-93
2023/07/09 00:07:12;;;;;;;4.80;3.15;;;;;;;19.42;60.25;100160.69;4309003;33;20095;-92
2023/07/09 00:09:38;;;;;;;4.25;2.70;;;;;;;19.62;60.25;100160.28;4309183;33;20064;-92
2023/07/09 00:12:04;;;;;;;4.55;2.87;;;;;;;19.49;60.25;100168.09;4297007;33;20130;-92
2023/07/09 00:14:29;;;;;;;4.28;2.80;;;;;;;19.30;60.24;100168.38;4317023;33;20100;-92
2023/07/09 00:16:55;;;;;;;5.20;3.17;;;;;;;19.34;60.25;100161.12;4321257;33;20174;-93
2023/07/09 00:19:23;;;;;;;3.47;2.80;;;;;;;19.27;60.24;100167.72;4308695;33;22677;-92
2023/07/09 00:21:51;;;;;;;5.47;3.10;;;;;;;19.51;60.26;100165.38;4306813;33;20469;-92
2023/07/09 00:24:16;;;;;;;5.93;3.00;;;;;;;19.43;60.25;100163.22;4321630;33;20134;-92
2023/07/09 00:26:42;;;;;;;4.70;3.10;;;;;;;19.36;60.24;100166.31;4321311;33;20119;-93
2023/07/09 00:29:10;;;;;;;3.55;2.72;;;;;;;19.40;60.25;100162.53;4321290;33;20161;-93
2023/07/09 00:31:40;;;;;;;5.28;2.90;;;;;;;19.43;60.25;100154.44;4309644;33;20091;-92
2023/07/09 00:34:13;;;;;;;5.65;3.10;;;;;;;19.46;60.25;100156.91;4322492;33;20751;-92
2023/07/09 00:36:39;;;;;;;4.95;2.97;;;;;;;19.45;60.25;100163.97;4311198;33;20761;-92
2023/07/09 00:39:05;;;;;;;6.32;3.17;;;;;;;19.27;60.24;100165.09;4304979;33;20064;-93
2023/07/09 00:41:34;;;;;;;5.97;3.12;;;;;;;19.22;60.23;100169.81;4331901;33;20487;-92
2023/07/09 00:44:29;;;;;;;6.50;2.95;;;;;;;19.07;60.23;100168.09;4310665;33;20125;-91
2023/07/09 00:47:03;;;;;;;5.03;2.78;;;;;;;19.24;60.24;100170.56;4309222;33;20112;-92
2023/07/09 00:49:36;;;;;;;4.40;3.12;;;;;;;19.25;60.24;100165.19;4320736;33;20144;-92
2023/07/09 00:52:19;;;;;;;3.62;2.87;;;;;;;19.28;60.24;100162.34;4307231;33;20139;-92
2023/07/09 00:54:46;;;;;;;7.85;3.42;;;;;;;18.97;60.22;100158.09;4308828;33;20167;-92
2023/07/09 00:57:17;;;;;;;5.78;2.80;;;;;;;18.87;60.22;100162.22;4315054;33;20115;-91
2023/07/09 00:59:44;;;;;;;4.87;2.97;;;;;;;18.88;60.22;100161.28;4304718;33;20096;-92
2023/07/09 01:02:10;;;;;;;4.93;2.80;;;;;;;18.93;60.22;100158.38;4321331;33;20118;-92
2023/07/09 01:04:39;;;;;;;5.18;2.75;;;;;;;18.98;60.22;100162.44;4306783;33;20143;-91
2023/07/09 01:07:05;;;;;;;4.35;3.10;;;;;;;19.15;60.23;100163.19;4309370;33;20118;-92
2023/07/09 01:09:30;;;;;;;4.32;2.92;;;;;;;19.19;60.24;100152.37;4308477;33;20119;-92
2023/07/09 01:12:00;;;;;;;4.95;3.05;;;;;;;19.20;60.23;100161.16;4320155;33;23752;-91
2023/07/09 01:14:26;;;;;;;5.53;3.30;;;;;;;19.00;60.23;100165.84;4308879;33;20104;-92
2023/07/09 01:17:02;;;;;;;5.25;3.40;;;;;;;19.25;60.24;100159.91;4320750;33;20141;-92
2023/07/09 01:19:29;;;;;;;7.10;3.58;;;;;;;19.08;60.24;100160.09;4306191;33;20453;-92
2023/07/09 01:21:58;;;;;;;5.50;3.33;;;;;;;19.15;60.23;100153.47;4301335;33;20405;-93
2023/07/09 01:24:49;;;;;;;4.50;2.87;;;;;;;18.96;60.22;100153.78;4309041;33;20154;-93
2023/07/09 01:27:14;;;;;;;7.47;2.78;;;;;;;18.97;60.22;100158.09;4320803;33;20141;-92
2023/07/09 01:29:40;;;;;;;5.47;3.03;;;;;;;18.75;60.21;100157.69;4320576;33;20369;-91
2023/07/09 01:32:06;;;;;;;4.53;2.97;;;;;;;18.63;60.21;100163.66;4308433;33;20492;-92
2023/07/09 01:34:32;;;;;;;5.53;2.87;;;;;;;18.76;60.21;100169.94;4308498;33;20142;-93
2023/07/09 01:36:58;;;;;;;5.70;2.80;;;;;;;18.74;60.21;100157.78;4308347;33;20108;-92
2023/07/09 01:39:25;;;;;;;4.07;2.40;;;;;;;18.91;60.22;100161.09;4314877;33;20099;-92
2023/07/09 01:41:51;;;;;;;4.12;2.70;;;;;;;18.66;60.20;100166.97;4322834;33;20100;-92
2023/07/09 01:44:16;;;;;;;5.87;2.95;;;;;;;18.86;60.22;100164.94;4320422;33;20107;-92
2023/07/09 01:46:42;;;;;;;5.72;2.80;;;;;;;18.73;60.21;100169.28;4320514;33;20186;-91
2023/07/09 01:49:08;;;;;;;3.85;3.10;;;;;;;18.54;60.20;100172.94;4320701;33;20139;-92
2023/07/09 01:51:36;;;;;;;5.45;2.97;;;;;;;18.46;60.19;100171.69;4308321;33;20735;-91
2023/07/09 01:54:01;;;;;;;9.32;3.12;;;;;;;18.47;60.20;100173.41;4296662;33;20111;-90
2023/07/09 01:56:27;;;;;;;4.85;3.33;;;;;;;18.43;60.19;100172.69;4319799;33;20111;-90
2023/07/09 01:58:53;;;;;;;4.68;3.20;;;;;;;18.60;60.20;100171.72;4293922;33;20100;-91
2023/07/09 02:01:19;;;;;;;7.60;3.12;;;;;;;18.35;60.19;100181.06;4322006;33;20084;-92
2023/07/09 02:03:45;;;;;;;5.30;3.00;;;;;;;18.16;60.18;100182.19;4321627;33;20425;-91
2023/07/09 02:06:11;;;;;;;5.57;2.72;;;;;;;18.26;60.19;100186.00;4298202;33;20108;-92
2023/07/09 02:08:36;;;;;;;5.75;3.30;;;;;;;18.30;60.18;100179.63;4321504;32;20080;-92
2023/07/09 02:11:02;;;;;;;11.35;3.05;;;;;;;18.45;60.19;100178.72;4321025;33;20117;-91
2023/07/09 02:13:27;;;;;;;5.43;2.95;;;;;;;18.22;60.18;100185.34;4310037;33;20433;-91
2023/07/09 02:15:53;;;;;;;4.28;3.05;;;;;;;18.00;60.18;100188.31;4321418;33;20108;-91
2023/07/09 02:18:19;;;;;;;4.95;2.97;;;;;;;18.21;60.17;100190.66;4310350;33;20095;-90
2023/07/09 02:20:47;;;;;;;6.37;3.40;;;;;;;18.34;60.19;100189.06;4309992;33;20432;-91
2023/07/09 02:23:13;;;;;;;4.30;3.00;;;;;;;18.35;60.19;100193.37;4321245;33;27405;-91
2023/07/09 02:25:39;;;;;;;4.32;2.97;;;;;;;18.25;60.18;100194.84;4321612;33;20164;-91
2023/07/09 02:28:04;;;;;;;4.60;2.97;;;;;;;18.26;60.18;100189.50;4309784;33;20095;-91
2023/07/09 02:30:30;;;;;;;5.95;2.90;;;;;;;18.23;60.19;100194.94;4309735;33;20096;-91
2023/07/09 02:32:56;;;;;;;5.28;2.83;;;;;;;18.24;60.19;100201.06;4295453;33;20111;-91
2023/07/09 02:35:22;;;;;;;5.00;3.00;;;;;;;17.96;60.17;100193.81;4308438;33;20399;-91
2023/07/09 02:37:47;;;;;;;6.07;2.90;;;;;;;17.92;60.17;100201.06;4310995;33;20418;-91
2023/07/09 02:40:13;;;;;;;4.28;2.97;;;;;;;17.95;60.17;100206.16;4321840;33;20124;-92
2023/07/09 02:42:38;;;;;;;7.43;3.28;;;;;;;18.04;60.17;100197.75;4321706;33;20153;-91
2023/07/09 02:45:04;;;;;;;5.53;3.45;;;;;;;18.09;60.18;100195.69;4321701;33;20155;-91
2023/07/09 02:47:29;;;;;;;3.60;2.80;;;;;;;18.22;60.18;100187.97;4309475;33;20091;-91
2023/07/09 02:49:55;;;;;;;4.55;3.05;;;;;;;18.08;60.18;100195.78;4295292;33;20159;-91
2023/07/09 02:52:20;;;;;;;6.53;2.92;;;;;;;18.22;60.18;100190.59;4300883;33;20137;-91
2023/07/09 02:54:46;;;;;;;4.78;2.78;;;;;;;18.28;60.18;100189.41;4298061;33;20136;-91
2023/07/09 02:57:11;;;;;;;4.12;2.95;;;;;;;18.22;60.18;100193.25;4310275;33;20143;-91
2023/07/09 02:59:37;;;;;;;3.83;2.83;;;;;;;17.97;60.17;100201.62;4297541;33;20347;-91
2023/07/09 03:02:03;;;;;;;7.47;3.78;;;;;;;17.98;60.17;100199.84;4321630;33;20108;-91
2023/07/09 03:04:28;;;;;;;5.75;3.22;;;;;;;17.92;60.16;100202.84;4297718;33;20107;-91
2023/07/09 03:06:53;;;;;;;4.72;3.30;;;;;;;17.98;60.16;100203.37;4309679;33;20438;-91
2023/07/09 03:09:19;;;;;;;4.87;3.10;;;;;;;18.01;60.17;100199.72;4321439;33;20108;-91
2023/07/09 03:11:45;;;;;;;5.97;3.45;;;;;;;18.03;60.17;100205.75;4297345;33;20115;-92
2023/07/09 03:14:10;;;;;;;5.32;3.25;;;;;;;18.20;60.18;100205.63;4321848;33;20103;-92
2023/07/09 03:16:36;;;;;;;9.13;3.20;;;;;;;18.28;60.18;100207.84;4321274;33;20127;-91
2023/07/09 03:19:03;;;;;;;7.85;3.00;;;;;;;18.43;60.19;100206.97;4321165;33;20088;-92
2023/07/09 03:21:30;;;;;;;9.63;3.37;;;;;;;18.28;60.18;100213.97;4299293;33;20130;-91
2023/07/09 03:23:55;;;;;;;6.75;3.25;;;;;;;18.25;60.19;100211.50;4297885;33;20119;-91
2023/07/09 03:26:21;;;;;;;7.25;4.15;;;;;;;18.39;60.20;100210.72;4309745;33;20092;-92
2023/07/09 03:28:46;;;;;;;4.18;2.72;;;;;;;18.10;60.18;100213.22;4295409;33;20110;-91
2023/07/09 03:31:12;;;;;;;4.85;3.00;;;;;;;18.28;60.18;100218.41;4310617;33;20158;-90
2023/07/09 03:33:37;;;;;;;4.93;3.12;;;;;;;18.55;60.20;100216.81;4323958;33;20151;-91
2023/07/09 03:36:04;;;;;;;4.90;2.90;;;;;;;18.58;60.20;100214.00;4304437;33;20110;-92
2023/07/09 03:38:30;;;;;;;5.60;3.03;;;;;;;18.31;60.19;100218.22;4318229;33;20128;-91
2023/07/09 03:40:55;;;;;;;4.87;3.08;;;;;;;18.58;60.20;100219.28;4311826;33;20515;-91
2023/07/09 03:43:21;;;;;;;7.72;2.90;;;;;;;18.15;60.17;100218.22;4297477;33;20783;-92
2023/07/09 03:45:46;;;;;;;4.47;3.10;;;;;;;18.19;60.18;100227.66;4297354;33;20368;-91
2023/07/09 03:48:12;;;;;;;4.15;3.03;;;;;;;18.35;60.19;100222.38;4321158;33;20110;-91
2023/07/09 03:50:38;;;;;;;4.45;2.87;;;;;;;18.29;60.18;100222.72;4298543;33;20116;-90
2023/07/09 03:53:03;;;;;;;5.07;3.05;;;;;;;18.36;60.18;100216.16;4321448;33;20134;-91
2023/07/09 03:55:29;;;;;;;4.18;3.03;;;;;;;18.38;60.20;100216.94;4309303;33;20140;-91
2023/07/09 03:57:55;;;;;;;6.05;3.53;;;;;;;18.64;60.21;100207.56;4320977;33;20099;-91
2023/07/09 04:00:20;;;;;;;5.87;2.90;;;;;;;18.34;60.19;100216.25;4308993;33;20150;-92
2023/07/09 04:02:46;;;;;;;3.97;3.03;;;;;;;18.56;60.20;100215.03;4318695;33;20096;-91
2023/07/09 04:05:11;;;;;;;5.55;2.97;;;;;;;18.79;60.21;100211.94;4308357;33;20121;-90
2023/07/09 04:07:37;;;;;;;5.72;3.20;;;;;;;18.82;60.21;100218.81;4297093;33;20138;-92
2023/07/09 04:10:03;;;;;;;4.35;2.92;;;;;;;18.85;60.22;100213.37;4321588;33;20476;-92
2023/07/09 04:12:29;;;;;;;5.62;2.97;;;;;;;19.06;60.22;100208.62;4324415;33;20884;-91
2023/07/09 04:14:54;;;;;;;5.55;3.25;;;;;;;18.86;60.22;100213.28;4320488;33;20147;-91
2023/07/09 04:17:21;;;;;;;5.97;3.28;;;;;;;19.34;60.24;100211.28;4309028;33;20100;-91
2023/07/09 04:19:47;;;;;;;6.60;2.95;;;;;;;19.26;60.24;100213.53;4297045;33;20129;-91
2023/07/09 04:22:12;;;;;;;6.32;3.08;;;;;;;19.09;60.23;100211.06;4321248;33;20100;-90
2023/07/09 04:24:38;;;;;;;4.45;3.05;;;;;;;19.08;60.23;100212.84;4308662;33;20192;-91
2023/07/09 04:27:03;;;;;;;4.90;3.17;;;;;;;19.42;60.24;100216.13;4321330;33;20151;-91
2023/07/09 04:29:30;;;;;;;5.00;2.95;;;;;;;19.46;60.25;100204.41;4320994;33;20108;-92
2023/07/09 04:31:55;;;;;;;5.05;3.20;;;;;;;19.35;60.24;100198.94;4311931;33;20779;-92
2023/07/09 04:34:21;;;;;;;3.67;2.70;;;;;;;19.40;60.25;100204.78;4308275;33;20088;-92
2023/07/09 04:36:46;;;;;;;6.20;2.90;;;;;;;19.74;60.26;100206.22;4308945;33;20110;-92
2023/07/09 04:39:11;;;;;;;4.07;2.80;;;;;;;19.80;60.26;100204.03;4321090;33;20394;-91
2023/07/09 04:41:37;;;;;;;5.10;2.78;;;;;;;19.84;60.26;100200.25;4320936;33;20100;-91
2023/07/09 04:44:02;;;;;;;4.95;2.40;;;;;;;20.08;60.27;100199.63;4308628;33;20125;-91
2023/07/09 04:46:28;;;;;;;4.45;2.70;;;;;;;20.17;60.29;100205.19;4309187;33;20123;-92
2023/07/09 04:48:53;;;;;;;5.40;2.87;;;;;;;20.32;60.29;100197.22;4296522;33;23862;-91
2023/07/09 04:51:18;;;;;;;6.28;2.90;;;;;;;20.28;60.29;100204.50;4320726;33;20126;-92
2023/07/09 04:53:44;;;;;;;4.40;2.60;;;;;;;20.74;60.31;100206.78;4321144;33;20456;-91
2023/07/09 04:56:10;;;;;;;4.68;2.78;;;;;;;20.65;60.31;100204.78;4321352;33;20351;-92
2023/07/09 04:58:36;;;;;;;4.70;3.05;;;;;;;20.70;60.31;100198.22;4321621;33;20723;-91
2023/07/09 05:01:01;;;;;;;4.53;3.67;;;;;;;21.08;60.32;100206.22;4322758;33;20135;-92
2023/07/09 05:03:27;;;;;;;4.95;3.20;;;;;;;21.16;60.33;100203.03;4324168;33;20762;-91
2023/07/09 05:05:52;;;;;;;7.05;2.85;;;;;;;21.36;60.35;100207.00;4337622;33;20433;-91
2023/07/09 05:08:18;;;;;;;4.32;2.65;;;;;;;21.45;60.35;100204.56;4323333;33;20140;-91
2023/07/09 05:10:47;;;;;;;6.07;2.92;;;;;;;21.64;60.37;100201.47;4296474;33;20103;-91
2023/07/09 05:13:12;;;;;;;10.82;3.17;;;;;;;21.79;60.36;100201.34;4298512;33;20198;-93
2023/07/09 05:15:42;;;;;;;7.18;3.30;;;;;;;21.93;60.37;100204.69;4308409;33;20104;-92
2023/07/09 05:18:08;;;;;;;6.60;3.00;;;;;;;22.23;60.39;100200.78;4320289;33;20107;-91
2023/07/09 05:20:34;;;;;;;5.60;2.72;;;;;;;22.41;60.41;100204.75;4320753;33;20155;-91
2023/07/09 05:22:59;;;;;;;4.28;2.67;;;;;;;22.51;60.41;100204.94;4308591;33;20092;-91
2023/07/09 05:25:25;;;;;;;5.00;2.47;;;;;;;22.55;60.41;100198.44;4293845;33;20104;-91
2023/07/09 05:27:51;;;;;;;5.80;2.90;;;;;;;22.75;60.41;100200.44;4296067;33;20111;-91
2023/07/09 05:30:37;;;;;;;4.40;2.58;;;;;;;23.04;60.44;100197.41;4320268;33;20116;-92
2023/07/09 05:33:03;;;;;;;5.45;3.00;;;;;;;23.23;60.44;100197.69;4320407;33;20115;-91
2023/07/09 05:35:28;;;;;;;4.87;2.70;;;;;;;23.48;60.45;100199.28;4327921;33;20509;-90
2023/07/09 05:37:54;;;;;;;5.62;3.00;;;;;;;23.56;60.46;100202.22;4296114;33;20155;-91
2023/07/09 05:40:19;;;;;;;4.43;2.60;;;;;;;23.70;60.47;100201.12;4320310;33;20150;-92
2023/07/09 05:42:45;;;;;;;3.72;2.40;;;;;;;23.88;60.47;100195.16;4320793;33;20122;-91
2023/07/09 05:45:10;;;;;;;4.60;2.70;;;;;;;24.20;60.50;100199.72;4322061;33;20378;-91
2023/07/09 05:47:36;;;;;;;4.95;2.85;;;;;;;24.31;60.50;100201.50;4307400;33;20092;-90
2023/07/09 05:50:02;;;;;;;7.80;2.97;;;;;;;24.58;60.52;100196.56;4317965;33;20151;-91
2023/07/09 05:52:29;;;;;;;5.75;2.83;;;;;;;24.71;60.52;100196.41;4297613;33;20108;-91
2023/07/09 05:54:54;;;;;;;4.03;2.60;;;;;;;24.58;60.51;100196.56;4309373;33;20702;-92
2023/07/09 05:57:21;;;;;;;4.75;3.10;;;;;;;24.88;60.53;100200.31;4297701;33;20132;-90
2023/07/09 06:00:31;;;;;;;4.95;2.95;;;;;;;24.93;60.53;100193.63;4328519;33;20150;-92
2023/07/09 06:02:57;;;;;;;4.62;3.08;;;;;;;25.12;60.54;100194.75;4320874;33;20109;-91
2023/07/09 06:05:23;;;;;;;8.50;3.10;;;;;;;25.29;60.55;100194.13;4322238;33;20111;-91
2023/07/09 06:07:48;;;;;;;4.80;2.80;;;;;;;25.54;60.55;100207.03;4321034;33;20115;-91
2023/07/09 06:10:15;;;;;;;4.95;2.67;;;;;;;25.68;60.57;100190.72;4300751;33;20148;-92
2023/07/09 06:12:40;;;;;;;6.30;2.92;;;;;;;25.88;60.59;100196.09;4297450;33;20483;-91
2023/07/09 06:15:06;;;;;;;6.45;3.20;;;;;;;25.78;60.58;100197.88;4321770;33;20092;-91
2023/07/09 06:17:32;;;;;;;7.05;3.12;;;;;;;26.09;60.58;100198.69;4321882;33;20120;-92
2023/07/09 06:19:57;;;;;;;5.12;2.72;;;;;;;26.16;60.59;100205.16;4297684;33;20142;-92
2023/07/09 06:22:22;;;;;;;6.57;3.47;;;;;;;26.40;60.61;100197.63;4321811;33;20151;-91
2023/07/09 06:24:48;;;;;;;5.90;2.87;;;;;;;26.54;60.61;100199.06;4322481;33;20152;-91
2023/07/09 06:27:13;;;;;;;6.03;3.50;;;;;;;26.81;60.63;100201.00;4298499;33;20126;-91
2023/07/09 06:29:39;;;;;;;9.30;3.85;;;;;;;26.92;60.63;100199.00;4311969;33;20175;-92
2023/07/09 06:32:04;;;;;;;7.40;4.47;;;;;;;26.95;60.64;100203.22;4328948;33;20067;-93
2023/07/09 06:34:30;;;;;;;8.85;5.45;;;;;;;27.22;60.65;100199.84;4333921;33;20106;-93
2023/07/09 06:36:56;;;;;;;9.23;5.87;;;;;;;27.35;60.66;100191.50;4322715;33;20127;-93
2023/07/09 06:39:21;;;;;;;10.55;5.30;;;;;;;27.65;60.66;100190.41;4309784;33;20143;-91
2023/07/09 06:41:47;;;;;;;12.02;6.55;;;;;;;27.66;60.68;100198.28;4309112;33;20144;-92
2023/07/09 06:44:12;;;;;;;6.37;3.78;;;;;;;27.91;60.69;100194.09;4316404;33;20092;-92
2023/07/09 06:46:38;;;;;;;9.15;4.57;;;;;;;28.17;60.70;100186.19;4317035;33;20111;-92
2023/07/09 06:49:05;;;;;;;6.12;2.97;;;;;;;28.34;60.70;100192.56;4309497;33;20104;-92
2023/07/09 06:51:30;;;;;;;3.90;2.65;;;;;;;28.54;60.72;100187.91;4326731;33;20100;-91
2023/07/09 06:53:56;;;;;;;2.72;2.28;;;;;;;28.81;60.73;100179.75;4308364;33;20358;-91
2023/07/09 06:56:21;;;;;;;3.60;2.28;;;;;;;29.28;60.75;100182.97;4308816;33;20159;-91
2023/07/09 06:58:48;;;;;;;4.82;2.45;;;;;;;29.56;60.76;100182.78;4297186;33;20143;-92
2023/07/09 07:01:13;;;;;;;3.53;2.35;;;;;;;29.55;60.77;100187.31;4303938;33;20122;-92
2023/07/09 07:03:39;;;;;;;3.95;2.97;;;;;;;29.79;60.77;100181.22;4308792;33;20699;-91
2023/07/09 07:06:06;;;;;;;4.47;2.30;;;;;;;29.92;60.79;100183.47;4309280;33;20137;-92
2023/07/09 07:08:31;;;;;;;5.65;2.42;;;;;;;29.82;60.78;100185.44;4309841;33;20104;-91
2023/07/09 07:11:02;;;;;;;3.42;2.28;;;;;;;29.81;60.78;100183.75;4342923;33;20346;-91
2023/07/09 07:13:32;;;;;;;5.32;2.55;;;;;;;30.00;60.79;100188.84;4312340;33;20095;-92
2023/07/09 07:15:57;;;;;;;5.40;2.65;;;;;;;30.11;60.79;100182.38;4308975;33;20187;-92
2023/07/09 07:18:23;;;;;;;4.90;2.85;;;;;;;30.25;60.80;100184.41;4333796;33;20100;-92
2023/07/09 07:20:49;;;;;;;9.10;3.17;;;;;;;30.52;60.81;100188.63;4309225;33;20243;-92
2023/07/09 07:23:14;;;;;;;4.05;2.90;;;;;;;30.48;60.82;100185.44;4309169;33;20168;-92
2023/07/09 07:25:41;;;;;;;3.08;2.60;;;;;;;30.63;60.82;100177.59;4307081;33;20163;-92
2023/07/09 07:28:06;;;;;;;3.72;2.35;;;;;;;30.61;60.82;100182.28;4333493;33;20123;-91
2023/07/09 07:30:32;;;;;;;4.40;2.65;;;;;;;30.75;60.82;100180.75;4309038;33;20387;-92
2023/07/09 07:32:57;;;;;;;4.57;2.62;;;;;;;30.68;60.83;100182.47;4309023;33;20116;-92
2023/07/09 07:35:23;;;;;;;4.22;2.55;;;;;;;30.71;60.83;100182.13;4320554;33;25730;-92
2023/07/09 07:37:48;;;;;;;5.18;2.72;;;;;;;30.85;60.84;100184.13;4321202;33;20154;-92
2023/07/09 07:40:14;;;;;;;5.43;2.60;;;;;;;30.80;60.83;100187.34;4308267;33;20113;-92
2023/07/09 07:42:39;;;;;;;6.15;2.95;;;;;;;30.92;60.85;100178.91;4300293;33;20100;-91
2023/07/09 07:45:07;;;;;;;3.20;2.35;;;;;;;30.84;60.84;100177.09;4307054;33;20137;-92
2023/07/09 07:47:33;;;;;;;4.03;2.67;;;;;;;31.00;60.84;100184.31;4309299;33;20107;-91
2023/07/09 07:49:58;;;;;;;5.25;2.95;;;;;;;31.17;60.86;100177.91;4320927;33;20110;-91
2023/07/09 07:52:25;;;;;;;4.85;2.53;;;;;;;30.98;60.84;100188.97;4321326;33;20088;-92
2023/07/09 07:54:52;;;;;;;4.15;2.70;;;;;;;31.00;60.84;100184.31;4328337;33;20170;-92
2023/07/09 07:57:18;;;;;;;4.65;2.67;;;;;;;30.81;60.83;100186.31;4322533;33;20100;-94
2023/07/09 07:59:43;;;;;;;5.12;2.65;;;;;;;30.85;60.84;100193.03;4313143;33;20486;-91
2023/07/09 08:02:11;;;;;;;4.43;2.62;;;;;;;30.85;60.84;100189.50;4312624;33;20120;-92
2023/07/09 08:04:37;;;;;;;7.00;2.80;;;;;;;31.04;60.84;100188.31;4311048;33;20182;-91
2023/07/09 08:07:02;;;;;;;5.03;2.83;;;;;;;31.06;60.85;100186.31;4308498;33;20159;-92
2023/07/09 08:09:28;;;;;;;5.05;2.83;;;;;;;31.16;60.86;100178.88;4308670;33;20127;-90
2023/07/09 08:11:53;;;;;;;5.07;2.40;;;;;;;31.17;60.86;100187.81;4320756;33;20108;-91
2023/07/09 08:14:18;;;;;;;4.53;2.92;;;;;;;31.24;60.86;100184.28;4326480;33;20442;-90
2023/07/09 08:16:44;;;;;;;4.68;2.70;;;;;;;31.14;60.85;100184.44;4308352;33;20237;-90
2023/07/09 08:19:09;;;;;;;3.55;2.67;;;;;;;31.09;60.86;100177.88;4320705;33;20104;-92
2023/07/09 08:21:35;;;;;;;7.43;2.97;;;;;;;31.18;60.86;100173.34;4320733;33;20366;-91
2023/07/09 08:24:00;;;;;;;4.22;3.00;;;;;;;31.22;60.86;100178.22;4308461;33;20107;-91
2023/07/09 08:26:26;;;;;;;5.43;3.10;;;;;;;31.34;60.86;100178.69;4320583;33;20159;-91
2023/07/09 08:28:51;;;;;;;4.15;2.90;;;;;;;31.35;60.86;100175.84;4333593;33;20111;-89
2023/07/09 08:31:17;;;;;;;3.50;2.78;;;;;;;31.61;60.88;100180.13;4332619;33;20163;-88
2023/07/09 08:33:42;;;;;;;3.62;2.95;;;;;;;31.72;60.89;100177.09;4320485;33;20445;-88
2023/07/09 08:36:08;;;;;;;4.50;3.00;;;;;;;31.84;60.89;100169.44;4320458;33;20174;-88
2023/07/09 08:38:34;;;;;;;7.03;3.12;;;;;;;32.12;60.91;100170.62;4333878;33;20140;-88
2023/07/09 08:41:01;;;;;;;4.32;2.80;;;;;;;32.46;60.93;100169.44;4333943;33;20096;-88
2023/07/09 08:43:33;;;;;;;3.90;2.87;;;;;;;32.55;60.93;100171.03;4326466;33;20127;-87
2023/07/09 08:46:16;;;;;;;6.40;3.15;;;;;;;32.66;60.93;100166.06;4332531;33;20103;-88
2023/07/09 08:48:44;;;;;;;4.60;2.83;;;;;;;32.70;60.94;100168.41;4333580;33;20084;-88
2023/07/09 08:51:20;;;;;;;4.40;2.90;;;;;;;32.98;60.94;100164.09;4332384;33;20114;-88
2023/07/09 08:53:49;;;;;;;3.72;2.62;;;;;;;32.89;60.94;100157.12;4333470;33;20103;-88
2023/07/09 08:56:15;;;;;;;5.00;3.12;;;;;;;33.16;60.96;100161.91;4320355;33;20558;-88
2023/07/09 08:58:40;;;;;;;4.62;2.80;;;;;;;33.06;60.95;100157.78;4328981;33;20096;-88
2023/07/09 09:01:11;;;;;;;3.60;3.05;;;;;;;33.20;60.96;100159.66;4320042;33;20455;-88
2023/07/09 09:03:41;;;;;;;4.70;2.72;;;;;;;33.30;60.96;100153.97;4332425;33;20096;-88
2023/07/09 09:06:17;;;;;;;3.37;2.70;;;;;;;33.37;60.96;100158.50;4320350;33;20099;-88
2023/07/09 09:08:59;;;;;;;4.57;2.80;;;;;;;33.37;60.96;100153.09;4331976;33;20091;-88
2023/07/09 09:11:44;;;;;;;6.30;2.70;;;;;;;33.70;60.98;100147.28;4333319;33;20433;-88
2023/07/09 09:14:27;;;;;;;3.22;2.58;;;;;;;33.78;60.99;100150.69;4333298;33;20126;-88
2023/07/09 09:16:53;;;;;;;3.50;2.65;;;;;;;33.94;61.00;100148.84;4308745;33;20096;-88
2023/07/09 09:19:37;;;;;;;5.93;2.75;;;;;;;33.91;60.99;100160.03;4291625;33;35096;-89
2023/07/09 09:22:08;;;;;;;3.78;2.50;;;;;;;33.74;60.99;100152.09;4332794;33;20471;-89
2023/07/09 09:25:18;;;;;;;4.12;3.25;;;;;;;33.82;60.99;100152.00;4321734;33;20172;-88
2023/07/09 09:27:43;;;;;;;;;;;;;;;34.07;61.01;100154.38;4311106;33;20115;-89
2023/07/09 09:30:23;;;;;;;4.22;2.97;;;;;;;33.96;61.00;100147.62;4346099;33;20046;-88
2023/07/09 09:33:02;;;;;;;2.70;2.45;;;;;;;34.05;61.01;100157.25;4333619;33;20572;-89
2023/07/09 09:35:28;;;;;;;3.87;2.67;;;;;;;34.14;61.01;100153.44;4330374;33;20493;-89
2023/07/09 09:37:55;;;;;;;4.07;3.05;;;;;;;34.05;61.01;100154.56;4332271;33;20107;-89
2023/07/09 09:40:24;;;;;;;5.62;2.97;;;;;;;34.17;61.01;100157.62;4319764;33;20091;-89
2023/07/09 09:42:51;;;;;;;2.83;2.62;;;;;;;34.41;61.02;100156.44;4320846;33;20461;-89
2023/07/09 09:45:20;;;;;;;4.10;2.83;;;;;;;34.76;61.05;100155.47;4331804;33;20108;-89
2023/07/09 09:47:46;;;;;;;4.65;3.17;;;;;;;35.04;61.05;100158.22;4333219;33;20126;-89
2023/07/09 09:50:16;;;;;;;4.55;2.80;;;;;;;35.22;61.06;100155.00;4331679;33;20091;-89
2023/07/09 09:52:42;;;;;;;6.47;3.00;;;;;;;34.94;61.05;100152.31;4331758;33;20084;-90
2023/07/09 09:55:32;;;;;;;13.27;3.22;;;;;;;34.72;61.03;100147.94;4319415;33;20120;-90
2023/07/09 09:57:57;;;;;;;3.75;2.80;;;;;;;34.56;61.03;100151.78;4332132;33;20414;-90
2023/07/09 10:00:25;;;;;;;3.92;2.97;;;;;;;34.52;61.03;100147.78;4328761;33;20117;-89
2023/07/09 10:02:50;;;;;;;4.07;2.47;;;;;;;34.28;61.02;100150.84;4319586;33;20088;-89
2023/07/09 10:05:16;;;;;;;4.10;2.92;;;;;;;34.25;61.02;100153.94;4329032;33;20169;-89
2023/07/09 10:08:02;;;;;;;2.83;2.55;;;;;;;34.44;61.03;100150.62;4331804;33;20087;-89
2023/07/09 10:10:28;;;;;;;4.35;2.70;;;;;;;34.73;61.03;100145.06;4304188;33;20092;-90
2023/07/09 10:13:01;;;;;;;4.30;2.65;;;;;;;34.86;61.04;100141.66;4331569;33;20123;-89
2023/07/09 10:15:33;;;;;;;3.75;2.60;;;;;;;35.01;61.05;100142.37;4319792;33;20095;-89
2023/07/09 10:18:22;;;;;;;4.28;2.97;;;;;;;34.96;61.05;100144.84;4319554;33;20095;-90
2023/07/09 10:20:53;;;;;;;;;;;;;;;34.92;61.04;100145.44;4331583;33;20158;-90
2023/07/09 10:23:32;;;;;;;3.12;2.53;;;;;;;34.77;61.05;100143.62;4319450;33;19979;-90
2023/07/09 10:26:31;;;;;;;7.73;2.90;;;;;;;34.59;61.02;100143.28;4328759;33;20188;-89
2023/07/09 10:29:13;;;;;;;4.03;2.87;;;;;;;34.35;61.01;100141.00;4320247;33;20125;-90
2023/07/09 10:31:41;;;;;;;3.10;2.60;;;;;;;34.12;61.01;100138.44;4321313;33;20257;-89
2023/07/09 10:34:18;;;;;;;5.20;2.80;;;;;;;34.21;61.02;100142.69;4333385;33;20084;-90
2023/07/09 10:37:24;;;;;;;4.97;3.30;;;;;;;34.42;61.02;100140.00;4334662;33;20122;-89
2023/07/09 10:39:52;;;;;;;4.45;2.75;;;;;;;34.45;61.03;100134.22;4324119;33;20111;-89
2023/07/09 10:42:23;;;;;;;3.22;2.72;;;;;;;34.52;61.03;100139.66;4321300;33;20107;-89
2023/07/09 10:44:54;;;;;;;5.22;2.75;;;;;;;34.67;61.04;100135.03;4321534;33;20106;-90
2023/07/09 10:47:34;;;;;;;5.87;2.85;;;;;;;35.00;61.04;100138.00;4321261;33;20103;-90
2023/07/09 10:50:00;;;;;;;5.07;3.00;;;;;;;35.31;61.06;100136.75;4333713;33;20120;-91
2023/07/09 10:52:34;;;;;;;4.70;3.08;;;;;;;35.23;61.06;100129.59;4321819;33;20222;-90
2023/07/09 10:55:02;;;;;;;4.43;3.15;;;;;;;35.30;61.06;100130.50;4322535;33;20135;-89
2023/07/09 10:57:30;;;;;;;3.55;2.60;;;;;;;35.43;61.07;100128.91;4327509;33;20142;-88
2023/07/09 10:59:55;;;;;;;3.67;2.62;;;;;;;35.67;61.08;100126.50;4338530;33;20076;-89
2023/07/09 11:02:31;;;;;;;4.87;2.87;;;;;;;35.75;61.09;100124.69;4303116;33;20092;-89
2023/07/09 11:04:58;;;;;;;6.03;2.87;;;;;;;35.94;61.09;100123.91;4319261;33;20095;-89
2023/07/09 11:07:30;;;;;;;3.37;2.85;;;;;;;35.91;61.10;100111.59;4321554;33;20108;-89
2023/07/09 11:09:56;;;;;;;4.93;3.78;;;;;;;35.65;61.09;100122.31;4321176;33;20112;-89
2023/07/09 11:12:36;;;;;;;5.62;3.03;;;;;;;35.28;61.07;100135.28;4321451;33;20257;-89
2023/07/09 11:15:09;;;;;;;3.97;2.72;;;;;;;35.01;61.06;100126.13;4308090;33;20249;-89
2023/07/09 11:17:35;;;;;;;3.67;2.58;;;;;;;34.90;61.05;100129.41;4333347;33;20151;-90
2023/07/09 11:20:06;;;;;;;4.80;3.40;;;;;;;35.22;61.06;100125.22;4333279;33;20125;-88
2023/07/09 11:22:39;;;;;;;7.65;3.85;;;;;;;35.13;61.06;100123.72;4333151;33;20412;-88
2023/07/09 11:25:05;;;;;;;5.82;3.05;;;;;;;35.00;61.06;100113.62;4323068;33;20088;-89
2023/07/09 11:27:31;;;;;;;5.47;3.37;;;;;;;35.09;61.06;100114.34;4331456;33;20433;-88
2023/07/09 11:29:58;;;;;;;4.85;2.87;;;;;;;35.37;61.07;100111.59;4332837;33;24707;-89
2023/07/09 11:32:24;;;;;;;3.87;3.25;;;;;;;35.67;61.09;100110.25;4308703;33;20566;-89